Date,TemperatureHighF,TemperatureAvgF,TemperatureLowF,DewpointHighF,DewpointAvgF,DewpointLowF,HumidityHigh,HumidityAvg,HumidityLow,PressureMaxIn,PressureMinIn,WindSpeedMaxMPH,WindSpeedAvgMPH,GustSpeedMaxMPH,PrecipitationSumIn
2013-2-1,12,7,-1,10,4,-4,92,89,87,30.16,29.94,14,5,0,0.00
2013-2-2,13,3,-3,11,1,-6,90,88,86,30.15,30.05,15,4,0,0.00
2013-2-3,13,6,0,11,3,-3,91,88,83,30.05,29.87,23,6,0,0.00
2013-2-4,14,5,-4,11,2,-7,89,86,82,30.04,29.95,12,3,0,0.00
2013-2-5,20,9,-8,19,7,-11,93,88,84,30.07,29.77,16,6,0,0.02
2013-2-6,22,14,5,16,10,2,93,85,73,30.26,30.08,6,1,0,0.00
2013-2-7,22,19,17,20,17,16,94,93,87,30.26,30.21,16,3,0,0.05
2013-2-8,22,17,1,19,13,-3,92,84,71,30.44,30.26,17,6,0,0.00
2013-2-9,28,15,-3,23,12,-7,93,87,78,30.44,30.16,21,6,0,0.00
2013-2-10,32,28,24,32,26,22,100,92,84,30.16,29.44,19,8,0,0.12
2013-2-11,34,29,21,34,28,18,99,95,86,29.81,29.27,28,8,0,0.24
2013-2-12,26,22,18,20,18,15,94,84,71,29.97,29.81,9,4,0,0.05
2013-2-13,36,24,14,26,20,12,95,84,66,29.80,29.66,7,2,0,0.00
2013-2-14,32,26,19,29,23,14,96,89,78,29.95,29.67,21,8,0,0.01
2013-2-15,18,15,10,15,11,3,91,83,69,30.20,29.95,17,8,0,0.01
2013-2-16,17,12,8,15,10,5,92,90,87,30.21,30.12,12,5,0,0.20
2013-2-17,20,11,-1,14,5,-4,89,77,57,30.22,30.05,11,4,0,0.00
2013-2-18,34,26,14,31,23,6,96,87,73,30.05,29.45,18,8,0,0.01
2013-2-19,31,19,11,30,18,9,97,94,92,29.97,29.33,38,18,0,0.14
2013-2-20,17,14,12,16,13,10,94,93,92,30.43,29.98,24,14,0,0.00
2013-2-21,22,19,16,21,18,14,96,95,93,30.52,30.36,13,6,0,0.00
2013-2-22,22,19,14,22,18,12,96,95,93,30.36,29.85,15,6,0,0.08
2013-2-23,30,25,18,30,24,17,98,97,94,29.86,29.77,6,0,0,0.09
2013-2-24,30,27,25,29,27,25,98,97,96,30.15,29.86,13,4,0,0.05
2013-2-25,32,28,24,31,27,23,98,97,96,30.18,30.14,7,1,0,0.01
2013-2-26,32,29,27,31,28,25,98,96,94,30.18,29.95,13,3,0,0.00
2013-2-27,31,29,26,31,29,25,99,97,94,29.94,29.80,19,8,0,0.14
2013-2-28,30,26,22,30,24,19,100,94,88,30.24,29.88,23,11,0,0.04